Dr.kaiyo — JD2325 — position and weather

sailwx.info

Track history (hours):
 
Tides and Currents Weather Stations Pressure Air Temp Water Temp Dewpoint Dewpoint Depression Visibility Wind Speed Wind Dir Waves Ship Positions

Dr.kaiyo

Last reported at 2014-Jul-30 04:33 UTC. Time now 2014-Jul-30 19:13 UTC.
Position N 34°42' E 135°12'.

Length 31 m.

Type: Other ship. MMSI: 431301823.

Date/timePositionNaut miles runAvg speedWind from/ knotsBaromVisibWave heightAir tempDewpointWater temp
2014-Jul-30 04:33N 34°42' E 135°12'3 2.8
2014-Jul-30 03:33N 34°39' E 135°12'3 2.9
2014-Jul-30 02:33N 34°36' E 135°10'5 5.1
2014-Jul-30 01:33N 34°34' E 135°05'9 9.3
2014-Jul-30 00:33N 34°41' E 135°12'0 0.1
2014-Jul-29 23:33N 34°41' E 135°13'1 0.0
2014-Jul-29 06:33N 34°41' E 135°12'4 4.5
2014-Jul-29 05:33N 34°38' E 135°16'1211.8
2014-Jul-29 04:31N 34°32' E 135°03'2 2.4
2014-Jul-29 03:33N 34°33' E 135°00'4 4.3
2014-Jul-29 02:33N 34°29' E 135°00'8 7.7
2014-Jul-29 01:33N 34°32' E 135°08'1 1.0
2014-Jul-29 00:33N 34°33' E 135°07'10 9.7
2014-Jul-28 23:33N 34°42' E 135°12'0 0.0
2014-Jul-28 07:18N 34°41' E 135°12'5 6.8
2014-Jul-28 06:33N 34°37' E 135°10'3 2.6
2014-Jul-28 05:33N 34°35' E 135°07'9 9.4
2014-Jul-28 04:33N 34°26' E 135°06'5 4.9
2014-Jul-28 03:32N 34°23' E 135°10'5 4.6
2014-Jul-28 02:34N 34°27' E 135°09'6 5.6
2014-Jul-28 01:33N 34°33' E 135°09'4 4.3
2014-Jul-28 00:34N 34°37' E 135°10'5 5.1
2014-Jul-27 23:33N 34°41' E 135°12'  
2014-Jul-24 09:33N 34°41' E 135°13'1111.0
2014-Jul-24 08:33N 34°37' E 135°01'12013.1
2014-Jul-23 23:22N 33°58' E 132°43'  
Track history (hours):
 
Tides and Currents Weather Stations Pressure Air Temp Water Temp Dewpoint Dewpoint Depression Visibility Wind Speed Wind Dir Waves Ship Positions

Dr.kaiyo

Last reported at 2014-Jul-30 04:33 UTC. Time now 2014-Jul-30 19:13 UTC.
Position N 34°42' E 135°12'.

Length 31 m.

Type: Other ship. MMSI: 431301823.

Date/timePositionNaut miles runAvg speedWind from/ knotsBaromVisibWave heightAir tempDewpointWater temp
2014-Jul-30 04:33N 34°42' E 135°12'3 2.8
2014-Jul-30 03:33N 34°39' E 135°12'3 2.9
2014-Jul-30 02:33N 34°36' E 135°10'5 5.1
2014-Jul-30 01:33N 34°34' E 135°05'9 9.3
2014-Jul-30 00:33N 34°41' E 135°12'0 0.1
2014-Jul-29 23:33N 34°41' E 135°13'1 0.0
2014-Jul-29 06:33N 34°41' E 135°12'4 4.5
2014-Jul-29 05:33N 34°38' E 135°16'1211.8
2014-Jul-29 04:31N 34°32' E 135°03'2 2.4
2014-Jul-29 03:33N 34°33' E 135°00'4 4.3
2014-Jul-29 02:33N 34°29' E 135°00'8 7.7
2014-Jul-29 01:33N 34°32' E 135°08'1 1.0
2014-Jul-29 00:33N 34°33' E 135°07'10 9.7
2014-Jul-28 23:33N 34°42' E 135°12'0 0.0
2014-Jul-28 07:18N 34°41' E 135°12'5 6.8
2014-Jul-28 06:33N 34°37' E 135°10'3 2.6
2014-Jul-28 05:33N 34°35' E 135°07'9 9.4
2014-Jul-28 04:33N 34°26' E 135°06'5 4.9
2014-Jul-28 03:32N 34°23' E 135°10'5 4.6
2014-Jul-28 02:34N 34°27' E 135°09'6 5.6
2014-Jul-28 01:33N 34°33' E 135°09'4 4.3
2014-Jul-28 00:34N 34°37' E 135°10'5 5.1
2014-Jul-27 23:33N 34°41' E 135°12'  
2014-Jul-24 09:33N 34°41' E 135°13'1111.0
2014-Jul-24 08:33N 34°37' E 135°01'12013.1
2014-Jul-23 23:22N 33°58' E 132°43'  

Dump ship's entire track history